createdAt,value
2023-05-22T00:00:54.887Z,20.40
2023-05-22T00:06:00.160Z,20.33
2023-05-22T00:11:01.578Z,20.31
2023-05-22T00:16:03.336Z,20.22
2023-05-22T00:21:04.752Z,20.34
2023-05-22T00:26:06.177Z,20.10
2023-05-22T00:31:07.591Z,20.10
2023-05-22T00:36:09.118Z,19.92
2023-05-22T00:41:10.626Z,19.78
2023-05-22T00:46:12.635Z,19.79
2023-05-22T00:51:14.788Z,19.78
2023-05-22T00:56:16.904Z,19.74
2023-05-22T01:01:18.376Z,19.79
2023-05-22T01:06:21.451Z,19.82
2023-05-22T01:11:28.379Z,19.47
2023-05-22T01:16:39.508Z,19.70
2023-05-22T01:21:59.537Z,19.68
2023-05-22T01:27:07.313Z,19.62
2023-05-22T01:32:10.659Z,19.69
2023-05-22T01:37:13.260Z,19.71
2023-05-22T01:42:14.940Z,19.58
2023-05-22T01:47:17.933Z,19.65
2023-05-22T01:52:38.123Z,19.65
2023-05-22T01:58:00.113Z,19.48
2023-05-22T02:03:06.324Z,19.32
2023-05-22T02:08:08.085Z,19.59
2023-05-22T02:13:13.949Z,19.37
2023-05-22T02:18:15.401Z,19.38
2023-05-22T02:23:17.926Z,19.27
2023-05-22T02:28:19.320Z,19.16
2023-05-22T02:33:21.370Z,19.14
2023-05-22T02:38:24.478Z,19.08
2023-05-22T02:43:26.530Z,18.99
2023-05-22T02:48:29.226Z,18.82
2023-05-22T02:53:30.700Z,18.89
2023-05-22T02:58:32.101Z,18.83
2023-05-22T03:03:34.014Z,18.69
2023-05-22T03:08:38.250Z,18.79
2023-05-22T03:13:39.692Z,18.67
2023-05-22T03:18:41.445Z,18.81
2023-05-22T03:23:44.766Z,18.64
2023-05-22T03:28:46.424Z,18.56
2023-05-22T03:33:48.536Z,18.60
2023-05-22T03:38:50.556Z,18.60
2023-05-22T03:43:52.267Z,18.50
2023-05-22T03:48:54.055Z,18.44
2023-05-22T03:53:55.581Z,18.18
2023-05-22T03:58:57.008Z,18.12
2023-05-22T04:03:58.516Z,18.34
2023-05-22T04:09:00.594Z,18.13
2023-05-22T04:14:03.329Z,18.09
2023-05-22T04:19:04.812Z,18.02
2023-05-22T04:24:10.784Z,18.03
2023-05-22T04:29:14.497Z,18.15
2023-05-22T04:34:16.658Z,17.99
2023-05-22T04:39:18.074Z,17.95
2023-05-22T04:44:22.777Z,17.86
2023-05-22T04:49:26.823Z,18.07
2023-05-22T04:54:28.264Z,17.92
2023-05-22T04:59:31.580Z,17.92
2023-05-22T05:04:33.770Z,18.06
2023-05-22T05:09:35.474Z,17.93
2023-05-22T05:14:36.922Z,18.09
2023-05-22T05:19:38.417Z,18.06
2023-05-22T05:24:39.900Z,18.12
2023-05-22T05:29:41.683Z,17.89
2023-05-22T05:34:51.979Z,18.03
2023-05-22T05:40:11.984Z,17.86
2023-05-22T05:45:18.403Z,17.84
2023-05-22T05:50:20.091Z,18.05
2023-05-22T05:55:22.343Z,18.16
2023-05-22T06:00:23.980Z,18.03
2023-05-22T06:05:27.012Z,17.99
2023-05-22T06:10:36.033Z,18.30
2023-05-22T06:15:47.122Z,18.24
2023-05-22T06:20:48.817Z,18.19
2023-05-22T06:25:50.358Z,18.31
2023-05-22T06:30:52.282Z,18.36
2023-05-22T06:35:56.618Z,18.36
2023-05-22T06:40:58.318Z,18.27
2023-05-22T06:46:01.527Z,18.26
2023-05-22T06:51:17.940Z,18.43
2023-05-22T06:56:25.261Z,18.29
2023-05-22T07:01:29.563Z,18.35
2023-05-22T07:06:41.718Z,18.49
2023-05-22T07:11:43.869Z,18.52
2023-05-22T07:16:46.739Z,18.35
2023-05-22T07:21:53.811Z,18.49
2023-05-22T07:26:56.632Z,18.68
2023-05-22T07:31:58.258Z,18.66
2023-05-22T07:37:01.449Z,19.02
2023-05-22T07:42:04.796Z,19.21
2023-05-22T07:47:09.511Z,19.05
2023-05-22T07:52:11.195Z,19.23
2023-05-22T07:57:13.444Z,19.23
2023-05-22T08:02:17.579Z,19.22
2023-05-22T08:07:19.090Z,19.24
2023-05-22T08:12:20.553Z,19.45
2023-05-22T08:17:22.053Z,19.19
2023-05-22T08:22:23.637Z,19.25
2023-05-22T08:27:25.042Z,18.98
2023-05-22T08:32:26.994Z,19.27
2023-05-22T08:37:29.518Z,19.31
2023-05-22T08:42:31.117Z,19.14
2023-05-22T08:47:35.025Z,18.98
2023-05-22T08:52:47.863Z,18.84
2023-05-22T08:57:52.798Z,19.17
2023-05-22T09:02:55.759Z,19.09
2023-05-22T09:08:02.611Z,19.44
2023-05-22T09:13:09.121Z,19.75
2023-05-22T09:18:11.261Z,19.26
2023-05-22T09:23:14.464Z,19.29
2023-05-22T09:28:15.943Z,19.44
2023-05-22T09:33:18.277Z,19.50
2023-05-22T09:38:21.548Z,19.45
2023-05-22T09:43:25.215Z,19.47
2023-05-22T09:48:26.806Z,19.72
2023-05-22T09:53:28.933Z,19.59
2023-05-22T09:58:31.070Z,19.82
2023-05-22T10:03:34.537Z,20.06
2023-05-22T10:08:38.606Z,20.09
2023-05-22T10:13:41.133Z,19.89
2023-05-22T10:18:45.657Z,20.20
2023-05-22T10:23:48.495Z,20.28
2023-05-22T10:28:54.012Z,20.75
2023-05-22T10:33:59.617Z,20.70
2023-05-22T10:39:08.102Z,21.11
2023-05-22T10:44:09.972Z,21.24
2023-05-22T10:49:19.829Z,20.86
2023-05-22T10:54:36.514Z,21.41
2023-05-22T10:59:38.220Z,21.48
2023-05-22T11:04:39.792Z,21.57
2023-05-22T11:09:45.854Z,21.96
2023-05-22T11:15:06.869Z,21.72
2023-05-22T11:20:26.721Z,21.88
2023-05-22T11:25:30.139Z,21.69
2023-05-22T11:30:32.532Z,21.92
2023-05-22T11:35:34.077Z,21.88
2023-05-22T11:40:35.513Z,21.93
2023-05-22T11:45:37.877Z,21.70
2023-05-22T11:50:42.607Z,22.09
2023-05-22T11:55:44.295Z,22.43
2023-05-22T12:00:45.749Z,22.77
2023-05-22T12:05:47.265Z,23.18
2023-05-22T12:10:52.374Z,22.60
2023-05-22T12:15:56.125Z,22.87
2023-05-22T12:20:57.565Z,22.99
2023-05-22T12:25:59.868Z,23.16
2023-05-22T12:31:01.344Z,23.07
2023-05-22T12:36:07.252Z,23.34
2023-05-22T12:41:08.706Z,23.32
2023-05-22T12:46:10.138Z,23.30
2023-05-22T12:51:11.601Z,23.19
2023-05-22T12:56:13.036Z,23.48
2023-05-22T13:01:14.627Z,23.24
2023-05-22T13:06:16.211Z,23.50
2023-05-22T13:11:19.961Z,23.97
2023-05-22T13:16:21.479Z,23.80
2023-05-22T13:21:25.091Z,23.93
2023-05-22T13:26:27.815Z,23.84
2023-05-22T13:31:29.324Z,23.95
2023-05-22T13:36:30.863Z,24.08
2023-05-22T13:41:32.322Z,23.78
2023-05-22T13:46:33.753Z,23.97
2023-05-22T13:51:35.594Z,24.10
2023-05-22T13:56:37.036Z,24.10
2023-05-22T14:01:38.521Z,24.11
2023-05-22T14:06:40.197Z,24.45
2023-05-22T14:11:41.767Z,24.02
2023-05-22T14:16:43.280Z,23.99
2023-05-22T14:21:45.177Z,24.24
2023-05-22T14:26:46.584Z,24.40
2023-05-22T14:31:51.436Z,24.72
2023-05-22T14:36:53.388Z,24.86
2023-05-22T14:41:54.931Z,24.81
2023-05-22T14:46:56.388Z,25.05
2023-05-22T14:51:57.881Z,24.51
2023-05-22T14:56:59.277Z,24.83
2023-05-22T15:02:00.848Z,24.59
2023-05-22T15:07:02.257Z,24.38
2023-05-22T15:12:03.701Z,24.89
2023-05-22T15:17:05.203Z,24.89
2023-05-22T15:22:19.641Z,25.08
2023-05-22T15:27:21.776Z,24.77
2023-05-22T15:32:23.771Z,24.65
2023-05-22T15:37:25.170Z,24.47
2023-05-22T15:42:28.445Z,24.69
2023-05-22T15:47:29.980Z,24.53
2023-05-22T15:52:31.421Z,24.83
2023-05-22T15:57:34.044Z,24.81
2023-05-22T16:02:35.518Z,24.73
2023-05-22T16:07:37.024Z,24.48
2023-05-22T16:12:39.137Z,24.57
2023-05-22T16:17:40.597Z,24.41
2023-05-22T16:22:48.597Z,24.53
2023-05-22T16:27:50.509Z,23.96
2023-05-22T16:32:52.104Z,24.15
2023-05-22T16:37:53.515Z,24.22
2023-05-22T16:42:54.963Z,24.29
2023-05-22T16:47:56.415Z,23.84
2023-05-22T16:52:57.792Z,23.94
2023-05-22T16:57:59.987Z,24.09
2023-05-22T17:03:02.938Z,24.05
2023-05-22T17:08:04.773Z,23.67
2023-05-22T17:13:06.326Z,23.39
2023-05-22T17:18:07.813Z,22.96
2023-05-22T17:23:09.224Z,22.76
2023-05-22T17:28:10.697Z,22.64
2023-05-22T17:33:12.743Z,22.32
2023-05-22T17:38:14.296Z,22.46
2023-05-22T17:43:18.843Z,22.10
2023-05-22T17:48:26.835Z,22.06
2023-05-22T17:53:33.874Z,22.00
2023-05-22T17:58:35.376Z,22.05
2023-05-22T18:03:36.860Z,21.93
2023-05-22T18:08:39.880Z,22.12
2023-05-22T18:13:41.469Z,22.19
2023-05-22T18:18:42.886Z,22.19
2023-05-22T18:23:44.335Z,22.04
2023-05-22T18:28:48.169Z,21.96
2023-05-22T18:33:49.640Z,22.16
2023-05-22T18:38:51.116Z,22.12
2023-05-22T18:43:52.529Z,22.01
2023-05-22T18:48:54.425Z,21.89
2023-05-22T18:53:55.929Z,21.89
2023-05-22T18:58:57.328Z,21.65
2023-05-22T19:03:58.777Z,21.63
2023-05-22T19:09:00.416Z,21.75
2023-05-22T19:14:02.127Z,21.52
2023-05-22T19:19:03.651Z,21.39
2023-05-22T19:24:05.550Z,21.39
2023-05-22T19:29:07.145Z,21.58
2023-05-22T19:34:08.595Z,21.61
2023-05-22T19:39:10.066Z,21.63
2023-05-22T19:44:11.477Z,21.66
2023-05-22T19:49:13.199Z,21.51
2023-05-22T19:54:14.737Z,21.51
2023-05-22T19:59:16.141Z,21.26
2023-05-22T20:04:17.641Z,21.26
2023-05-22T20:09:19.067Z,21.11
2023-05-22T20:14:20.994Z,21.07
2023-05-22T20:19:24.149Z,20.97
2023-05-22T20:24:25.654Z,20.99
2023-05-22T20:29:27.088Z,20.88
2023-05-22T20:34:28.816Z,20.75
2023-05-22T20:39:30.430Z,20.61
2023-05-22T20:44:32.293Z,20.49
2023-05-22T20:49:34.563Z,20.43
2023-05-22T20:54:36.008Z,20.56
2023-05-22T20:59:37.507Z,20.45
2023-05-22T21:04:39.042Z,20.29
2023-05-22T21:09:40.706Z,20.14
2023-05-22T21:14:43.925Z,20.12
2023-05-22T21:19:46.129Z,19.98
2023-05-22T21:24:47.867Z,20.02
2023-05-22T21:29:49.363Z,20.00
2023-05-22T21:34:50.936Z,19.92
2023-05-22T21:39:52.343Z,19.88
2023-05-22T21:44:54.359Z,19.67
2023-05-22T21:49:55.779Z,19.45
2023-05-22T21:54:57.860Z,19.42
2023-05-22T21:59:59.291Z,19.23
2023-05-22T22:05:00.710Z,19.21
2023-05-22T22:10:02.154Z,19.19
2023-05-22T22:15:03.694Z,19.16
2023-05-22T22:20:05.779Z,19.06
2023-05-22T22:25:07.624Z,18.95
2023-05-22T22:30:09.762Z,18.84
2023-05-22T22:35:11.248Z,18.86
2023-05-22T22:40:12.761Z,18.43
2023-05-22T22:45:14.762Z,18.40
2023-05-22T22:50:16.722Z,18.45
2023-05-22T22:55:18.150Z,18.39
2023-05-22T23:00:20.155Z,18.40
2023-05-22T23:05:21.678Z,18.18
2023-05-22T23:10:23.342Z,18.38
2023-05-22T23:15:24.879Z,18.16
2023-05-22T23:20:26.306Z,18.11
2023-05-22T23:25:27.698Z,18.25
2023-05-22T23:30:29.105Z,18.38
2023-05-22T23:35:30.973Z,18.22
2023-05-22T23:40:32.389Z,18.11
2023-05-22T23:45:33.796Z,18.26
2023-05-22T23:50:36.110Z,18.03
2023-05-22T23:55:37.534Z,17.97
